Terminal Aerodrome Forecast
Issued by NWS Twin Cities, MN

Home | Current Version | Previous Version | Text Only | Print | Product List | Glossary Off
Versions: 1 2 3 4 5 6 7 8 9 10 11 12 13 14 15 16 17 18 19 20 21 22 23 24 25 26 27 28 29

000
FTUS43 KMPX 250536
TAFMSP
TAF
KMSP 250536Z 2506/2612 15007KT 1 1/2SM BR SCT007 OVC014
     FM250630 18008KT P6SM SCT010 OVC015
     FM251000 20009KT 4SM BR OVC007
     FM251400 25014G22KT P6SM SCT012
     FM251700 28022G32KT P6SM BKN020
     FM260100 29016G23KT P6SM BKN030
     FM260600 30013G20KT P6SM SKC=

USA.gov is the U.S. government's official web portal to all federal, state and local government web resources and services.